Tannersville, Virginia
Current Conditions -  °F | °C
As of 5:55 AM on Wednesday 22 Oct 2014 (Local Time) from KJFZ Reporting Station
Overcast Overcast  
Wind Chill: 39°   Ceiling: 900
Heat Index: 43°   Visibility: 10mi
Dew Point: 40°   Wind: 7mph
Humidity: 90%   Direction: 330°NNW
Pressure: 30.1"   Gusts: NA
Location:  36.98°N, 81.63°W
Report Text: KJFZ 220955Z AUTO 33006KT 10SM OVC009 06/05 A3010 RMK AO2 T00600045
Loading
Personal Weather Stations






























Interactive Weather Map
Tropical Storm Tracking
New forecast layout! Learn more

10-Day Weather Forecast

Advertisements
Track Severe Weather on mobile